sensor_id;sensor_type;location;lat;lon;timestamp;P1;durP1;ratioP1;P2;durP2;ratioP2
16967;SDS011;64862;54.398;10.126;2024-01-10T00:08:04;27.90;;;14.25;;
16967;SDS011;64862;54.398;10.126;2024-01-10T00:18:08;25.65;;;13.02;;
16967;SDS011;64862;54.398;10.126;2024-01-10T00:28:10;23.17;;;12.45;;
16967;SDS011;64862;54.398;10.126;2024-01-10T00:38:16;22.83;;;12.00;;
16967;SDS011;64862;54.398;10.126;2024-01-10T00:48:18;40.53;;;12.02;;
16967;SDS011;64862;54.398;10.126;2024-01-10T00:58:21;23.63;;;12.00;;
16967;SDS011;64862;54.398;10.126;2024-01-10T01:08:23;26.70;;;13.93;;
16967;SDS011;64862;54.398;10.126;2024-01-10T01:18:27;28.60;;;13.77;;
16967;SDS011;64862;54.398;10.126;2024-01-10T01:28:29;35.22;;;15.23;;
16967;SDS011;64862;54.398;10.126;2024-01-10T01:38:33;35.55;;;14.80;;
16967;SDS011;64862;54.398;10.126;2024-01-10T01:48:35;29.17;;;14.60;;
16967;SDS011;64862;54.398;10.126;2024-01-10T01:58:39;30.90;;;14.45;;
16967;SDS011;64862;54.398;10.126;2024-01-10T02:08:41;36.42;;;13.52;;
16967;SDS011;64862;54.398;10.126;2024-01-10T02:18:45;25.42;;;12.73;;
16967;SDS011;64862;54.398;10.126;2024-01-10T02:28:48;26.67;;;13.15;;
16967;SDS011;64862;54.398;10.126;2024-01-10T02:38:50;28.13;;;14.10;;
16967;SDS011;64862;54.398;10.126;2024-01-10T02:48:54;25.48;;;13.07;;
16967;SDS011;64862;54.398;10.126;2024-01-10T02:58:56;29.77;;;13.95;;
16967;SDS011;64862;54.398;10.126;2024-01-10T03:08:59;28.27;;;13.95;;
16967;SDS011;64862;54.398;10.126;2024-01-10T03:19:01;28.73;;;13.70;;
16967;SDS011;64862;54.398;10.126;2024-01-10T03:29:06;30.00;;;14.10;;
16967;SDS011;64862;54.398;10.126;2024-01-10T03:39:08;32.50;;;14.38;;
16967;SDS011;64862;54.398;10.126;2024-01-10T03:49:12;32.88;;;15.45;;
16967;SDS011;64862;54.398;10.126;2024-01-10T03:59:15;32.60;;;15.65;;
16967;SDS011;64862;54.398;10.126;2024-01-10T04:09:18;47.88;;;14.93;;
16967;SDS011;64862;54.398;10.126;2024-01-10T04:19:21;63.80;;;17.17;;
16967;SDS011;64862;54.398;10.126;2024-01-10T04:29:24;43.95;;;17.63;;
16967;SDS011;64862;54.398;10.126;2024-01-10T04:39:27;39.60;;;16.42;;
16967;SDS011;64862;54.398;10.126;2024-01-10T04:49:32;43.92;;;17.48;;
16967;SDS011;64862;54.398;10.126;2024-01-10T04:59:34;59.88;;;19.00;;
16967;SDS011;64862;54.398;10.126;2024-01-10T05:09:38;49.00;;;19.20;;
16967;SDS011;64862;54.398;10.126;2024-01-10T05:19:40;51.05;;;20.35;;
16967;SDS011;64862;54.398;10.126;2024-01-10T05:29:44;51.13;;;20.77;;
16967;SDS011;64862;54.398;10.126;2024-01-10T05:39:47;56.33;;;21.25;;
16967;SDS011;64862;54.398;10.126;2024-01-10T05:49:52;55.28;;;21.67;;
16967;SDS011;64862;54.398;10.126;2024-01-10T05:59:56;57.30;;;21.13;;
16967;SDS011;64862;54.398;10.126;2024-01-10T06:10:00;55.00;;;21.42;;
16967;SDS011;64862;54.398;10.126;2024-01-10T06:20:02;53.85;;;20.80;;
16967;SDS011;64862;54.398;10.126;2024-01-10T06:30:10;52.80;;;20.77;;
16967;SDS011;64862;54.398;10.126;2024-01-10T06:40:13;46.58;;;19.55;;
16967;SDS011;64862;54.398;10.126;2024-01-10T06:50:21;50.05;;;19.23;;
16967;SDS011;64862;54.398;10.126;2024-01-10T07:00:24;47.85;;;19.20;;
16967;SDS011;64862;54.398;10.126;2024-01-10T07:10:27;56.20;;;20.48;;
16967;SDS011;64862;54.398;10.126;2024-01-10T07:20:30;56.45;;;20.58;;
16967;SDS011;64862;54.398;10.126;2024-01-10T07:30:35;57.40;;;21.33;;
16967;SDS011;64862;54.398;10.126;2024-01-10T07:40:38;58.97;;;21.42;;
16967;SDS011;64862;54.398;10.126;2024-01-10T07:50:42;58.33;;;21.80;;
16967;SDS011;64862;54.398;10.126;2024-01-10T08:00:44;60.83;;;22.63;;
16967;SDS011;64862;54.398;10.126;2024-01-10T08:10:48;62.80;;;22.85;;
16967;SDS011;64862;54.398;10.126;2024-01-10T08:20:50;57.92;;;21.85;;
16967;SDS011;64862;54.398;10.126;2024-01-10T08:30:54;66.70;;;24.10;;
16967;SDS011;64862;54.398;10.126;2024-01-10T08:40:57;68.10;;;27.73;;
16967;SDS011;64862;54.398;10.126;2024-01-10T08:51:01;61.20;;;22.88;;
16967;SDS011;64862;54.398;10.126;2024-01-10T09:01:04;54.20;;;21.08;;
16967;SDS011;64862;54.398;10.126;2024-01-10T09:11:09;51.42;;;19.98;;
16967;SDS011;64862;54.398;10.126;2024-01-10T09:21:12;47.20;;;18.80;;
16967;SDS011;64862;54.398;10.126;2024-01-10T09:31:15;42.22;;;18.30;;
16967;SDS011;64862;54.398;10.126;2024-01-10T09:41:17;43.45;;;18.80;;
16967;SDS011;64862;54.398;10.126;2024-01-10T09:51:21;42.83;;;18.13;;
16967;SDS011;64862;54.398;10.126;2024-01-10T10:01:25;41.80;;;18.08;;
16967;SDS011;64862;54.398;10.126;2024-01-10T10:11:29;45.83;;;19.17;;
16967;SDS011;64862;54.398;10.126;2024-01-10T10:21:32;45.75;;;18.80;;
16967;SDS011;64862;54.398;10.126;2024-01-10T10:31:36;41.20;;;17.27;;
16967;SDS011;64862;54.398;10.126;2024-01-10T10:41:38;42.60;;;18.00;;
16967;SDS011;64862;54.398;10.126;2024-01-10T10:51:42;38.30;;;17.17;;
16967;SDS011;64862;54.398;10.126;2024-01-10T11:01:44;39.05;;;16.65;;
16967;SDS011;64862;54.398;10.126;2024-01-10T11:11:54;40.17;;;17.38;;
16967;SDS011;64862;54.398;10.126;2024-01-10T11:22:07;36.47;;;16.38;;
16967;SDS011;64862;54.398;10.126;2024-01-10T11:32:34;41.25;;;17.25;;
16967;SDS011;64862;54.398;10.126;2024-01-10T11:42:43;37.88;;;16.85;;
16967;SDS011;64862;54.398;10.126;2024-01-10T11:52:48;36.63;;;16.33;;
16967;SDS011;64862;54.398;10.126;2024-01-10T12:02:54;37.67;;;17.63;;
16967;SDS011;64862;54.398;10.126;2024-01-10T12:13:00;38.20;;;17.58;;
16967;SDS011;64862;54.398;10.126;2024-01-10T12:23:02;36.85;;;17.45;;
16967;SDS011;64862;54.398;10.126;2024-01-10T12:33:06;33.88;;;15.75;;
16967;SDS011;64862;54.398;10.126;2024-01-10T12:43:11;36.15;;;16.80;;
16967;SDS011;64862;54.398;10.126;2024-01-10T12:53:17;36.67;;;16.42;;
16967;SDS011;64862;54.398;10.126;2024-01-10T13:03:19;29.88;;;14.73;;
16967;SDS011;64862;54.398;10.126;2024-01-10T13:13:22;28.42;;;13.50;;
16967;SDS011;64862;54.398;10.126;2024-01-10T13:23:24;28.48;;;13.98;;
16967;SDS011;64862;54.398;10.126;2024-01-10T13:33:27;24.15;;;12.70;;
16967;SDS011;64862;54.398;10.126;2024-01-10T13:43:29;22.70;;;11.23;;
16967;SDS011;64862;54.398;10.126;2024-01-10T13:53:33;22.95;;;11.63;;
16967;SDS011;64862;54.398;10.126;2024-01-10T14:03:35;16.73;;;8.80;;
16967;SDS011;64862;54.398;10.126;2024-01-10T14:13:40;13.98;;;7.60;;
16967;SDS011;64862;54.398;10.126;2024-01-10T14:23:42;17.67;;;9.30;;
16967;SDS011;64862;54.398;10.126;2024-01-10T14:33:47;18.58;;;10.13;;
16967;SDS011;64862;54.398;10.126;2024-01-10T14:43:49;19.58;;;10.80;;
16967;SDS011;64862;54.398;10.126;2024-01-10T14:53:53;19.58;;;10.85;;
16967;SDS011;64862;54.398;10.126;2024-01-10T15:03:55;15.98;;;9.10;;
16967;SDS011;64862;54.398;10.126;2024-01-10T15:13:58;10.50;;;5.65;;
16967;SDS011;64862;54.398;10.126;2024-01-10T15:24:01;8.85;;;5.07;;
16967;SDS011;64862;54.398;10.126;2024-01-10T15:34:05;7.43;;;4.50;;
16967;SDS011;64862;54.398;10.126;2024-01-10T15:44:07;13.82;;;6.25;;
16967;SDS011;64862;54.398;10.126;2024-01-10T15:54:11;8.65;;;4.93;;
16967;SDS011;64862;54.398;10.126;2024-01-10T16:04:13;7.82;;;5.00;;
16967;SDS011;64862;54.398;10.126;2024-01-10T16:14:17;12.00;;;6.25;;
16967;SDS011;64862;54.398;10.126;2024-01-10T16:24:19;11.10;;;6.50;;
16967;SDS011;64862;54.398;10.126;2024-01-10T16:34:24;10.57;;;5.88;;
16967;SDS011;64862;54.398;10.126;2024-01-10T16:44:28;9.77;;;5.80;;
16967;SDS011;64862;54.398;10.126;2024-01-10T16:54:34;10.95;;;6.15;;
16967;SDS011;64862;54.398;10.126;2024-01-10T17:04:37;9.27;;;5.63;;
16967;SDS011;64862;54.398;10.126;2024-01-10T17:14:42;11.75;;;6.53;;
16967;SDS011;64862;54.398;10.126;2024-01-10T17:24:44;10.88;;;6.15;;
16967;SDS011;64862;54.398;10.126;2024-01-10T17:34:47;9.77;;;4.97;;
16967;SDS011;64862;54.398;10.126;2024-01-10T17:44:50;9.90;;;5.80;;
16967;SDS011;64862;54.398;10.126;2024-01-10T17:54:54;8.25;;;4.93;;
16967;SDS011;64862;54.398;10.126;2024-01-10T18:04:56;8.80;;;5.35;;
16967;SDS011;64862;54.398;10.126;2024-01-10T18:15:02;6.40;;;4.40;;
16967;SDS011;64862;54.398;10.126;2024-01-10T18:25:06;8.10;;;5.03;;
16967;SDS011;64862;54.398;10.126;2024-01-10T18:35:10;7.78;;;5.00;;
16967;SDS011;64862;54.398;10.126;2024-01-10T18:45:12;9.30;;;5.90;;
16967;SDS011;64862;54.398;10.126;2024-01-10T18:55:15;8.25;;;5.57;;
16967;SDS011;64862;54.398;10.126;2024-01-10T19:05:18;9.13;;;6.10;;
16967;SDS011;64862;54.398;10.126;2024-01-10T19:15:24;8.95;;;5.35;;
16967;SDS011;64862;54.398;10.126;2024-01-10T19:25:26;9.93;;;6.07;;
16967;SDS011;64862;54.398;10.126;2024-01-10T19:35:31;8.63;;;6.30;;
16967;SDS011;64862;54.398;10.126;2024-01-10T19:45:35;8.95;;;5.57;;
16967;SDS011;64862;54.398;10.126;2024-01-10T19:55:39;11.23;;;6.45;;
16967;SDS011;64862;54.398;10.126;2024-01-10T20:05:42;9.27;;;6.30;;
16967;SDS011;64862;54.398;10.126;2024-01-10T20:15:47;9.68;;;6.60;;
16967;SDS011;64862;54.398;10.126;2024-01-10T20:25:51;10.18;;;6.25;;
16967;SDS011;64862;54.398;10.126;2024-01-10T20:35:55;11.70;;;7.18;;
16967;SDS011;64862;54.398;10.126;2024-01-10T20:45:57;10.38;;;7.03;;
16967;SDS011;64862;54.398;10.126;2024-01-10T20:56:01;12.00;;;7.45;;
16967;SDS011;64862;54.398;10.126;2024-01-10T21:06:03;14.60;;;8.93;;
16967;SDS011;64862;54.398;10.126;2024-01-10T21:16:07;13.23;;;8.32;;
16967;SDS011;64862;54.398;10.126;2024-01-10T21:26:10;13.02;;;8.23;;
16967;SDS011;64862;54.398;10.126;2024-01-10T21:36:15;11.52;;;8.05;;
16967;SDS011;64862;54.398;10.126;2024-01-10T21:46:18;13.40;;;9.02;;
16967;SDS011;64862;54.398;10.126;2024-01-10T21:56:23;16.00;;;8.95;;
16967;SDS011;64862;54.398;10.126;2024-01-10T22:06:25;15.15;;;8.80;;
16967;SDS011;64862;54.398;10.126;2024-01-10T22:16:29;13.55;;;8.63;;
16967;SDS011;64862;54.398;10.126;2024-01-10T22:26:31;14.10;;;8.98;;
16967;SDS011;64862;54.398;10.126;2024-01-10T22:36:34;14.15;;;9.32;;
16967;SDS011;64862;54.398;10.126;2024-01-10T22:46:36;15.77;;;10.18;;
16967;SDS011;64862;54.398;10.126;2024-01-10T22:56:40;18.15;;;11.93;;
16967;SDS011;64862;54.398;10.126;2024-01-10T23:06:43;18.90;;;12.27;;
16967;SDS011;64862;54.398;10.126;2024-01-10T23:16:46;21.65;;;13.43;;
16967;SDS011;64862;54.398;10.126;2024-01-10T23:26:48;20.52;;;13.20;;
16967;SDS011;64862;54.398;10.126;2024-01-10T23:36:51;20.40;;;12.55;;
16967;SDS011;64862;54.398;10.126;2024-01-10T23:46:53;21.35;;;12.98;;
16967;SDS011;64862;54.398;10.126;2024-01-10T23:56:57;28.90;;;15.77;;
